createdAt,value
2022-09-28T00:00:07.895Z,2.03
2022-09-28T00:05:08.106Z,2.30
2022-09-28T00:10:07.832Z,2.22
2022-09-28T00:15:08.502Z,2.80
2022-09-28T00:20:08.208Z,2.80
2022-09-28T00:25:07.950Z,2.50
2022-09-28T00:30:07.671Z,2.75
2022-09-28T00:35:08.429Z,2.70
2022-09-28T00:40:08.148Z,3.20
2022-09-28T00:45:07.840Z,3.30
2022-09-28T00:50:08.572Z,3.28
2022-09-28T00:55:08.327Z,3.47
2022-09-28T01:00:08.008Z,3.08
2022-09-28T01:05:07.708Z,3.40
2022-09-28T01:10:08.420Z,3.63
2022-09-28T01:15:08.151Z,3.20
2022-09-28T01:20:07.901Z,4.20
2022-09-28T01:25:08.600Z,4.43
2022-09-28T01:30:08.280Z,3.97
2022-09-28T01:35:08.020Z,4.90
2022-09-28T01:40:07.744Z,5.35
2022-09-28T01:45:08.464Z,4.38
2022-09-28T01:50:08.209Z,5.20
2022-09-28T01:55:07.913Z,4.43
2022-09-28T02:00:08.634Z,5.10
2022-09-28T02:05:18.262Z,0
2022-09-28T02:10:07.944Z,5.15
2022-09-28T02:15:07.619Z,4.32
2022-09-28T02:20:08.331Z,5.82
2022-09-28T02:25:08.048Z,4.93
2022-09-28T02:30:07.764Z,5.22
2022-09-28T02:35:08.507Z,5.07
2022-09-28T02:40:08.244Z,6.60
2022-09-28T02:45:07.999Z,6.05
2022-09-28T02:50:10.894Z,6.40
2022-09-28T02:55:08.605Z,6.57
2022-09-28T03:00:08.313Z,6.20
2022-09-28T03:05:08.029Z,6.38
2022-09-28T03:10:07.758Z,6.70
2022-09-28T03:15:08.422Z,6.97
2022-09-28T03:20:08.107Z,6.75
2022-09-28T03:25:07.820Z,7.20
2022-09-28T03:30:08.523Z,7.05
2022-09-28T03:35:08.223Z,6.45
2022-09-28T03:40:07.957Z,6.57
2022-09-28T03:45:07.646Z,6.70
2022-09-28T03:50:08.377Z,6.97
2022-09-28T03:55:08.139Z,7.45
2022-09-28T04:00:07.842Z,9.82
2022-09-28T04:05:02.737Z,7.88
2022-09-28T04:10:02.874Z,8.38
2022-09-28T04:15:02.817Z,7.53
2022-09-28T04:20:02.746Z,7.43
2022-09-28T04:25:02.659Z,7.75
2022-09-28T04:30:02.092Z,6.97
2022-09-28T04:35:02.035Z,6.65
2022-09-28T04:40:01.895Z,6.95
2022-09-28T04:45:02.725Z,7.82
2022-09-28T04:50:02.520Z,6.75
2022-09-28T04:55:02.362Z,7.75
2022-09-28T05:00:02.206Z,6.70
2022-09-28T05:05:02.045Z,6.30
2022-09-28T05:10:01.848Z,5.90
2022-09-28T05:15:02.714Z,5.45
2022-09-28T05:20:02.520Z,5.90
2022-09-28T05:25:02.297Z,5.97
2022-09-28T05:30:02.224Z,5.70
2022-09-28T05:35:02.003Z,5.28
2022-09-28T05:40:01.834Z,5.57
2022-09-28T05:45:02.612Z,5.20
2022-09-28T05:50:02.455Z,5.07
2022-09-28T05:55:02.219Z,5.03
2022-09-28T06:00:02.017Z,5.65
2022-09-28T06:05:02.228Z,4.85
2022-09-28T06:10:02.045Z,5.72
2022-09-28T06:15:01.888Z,5.40
2022-09-28T06:20:02.744Z,5.32
2022-09-28T06:25:02.540Z,5.68
2022-09-28T06:30:02.409Z,5.03
2022-09-28T06:35:02.184Z,5.78
2022-09-28T06:40:02.160Z,6.03
2022-09-28T06:45:02.097Z,5.80
2022-09-28T06:50:02.005Z,5.15
2022-09-28T06:55:01.952Z,7.10
2022-09-28T07:00:01.969Z,6.03
2022-09-28T07:05:01.922Z,5.80
2022-09-28T07:10:02.847Z,5.22
2022-09-28T07:15:02.810Z,5.68
2022-09-28T07:20:14.459Z,6.20
2022-09-28T07:25:01.917Z,5.45
2022-09-28T07:30:02.679Z,5.60
2022-09-28T07:35:02.491Z,6.15
2022-09-28T07:40:02.226Z,5.00
2022-09-28T07:45:02.173Z,6.35
2022-09-28T07:50:01.972Z,4.72
2022-09-28T07:55:06.650Z,4.32
2022-09-28T08:00:01.993Z,4.97
2022-09-28T08:05:01.840Z,4.10
2022-09-28T08:10:02.748Z,5.40
2022-09-28T08:15:02.607Z,4.75
2022-09-28T08:20:02.392Z,4.75
2022-09-28T08:25:02.236Z,4.43
2022-09-28T08:30:02.073Z,5.38
2022-09-28T08:35:01.901Z,4.47
2022-09-28T08:40:02.757Z,4.60
2022-09-28T08:45:02.584Z,4.53
2022-09-28T08:50:02.614Z,4.18
2022-09-28T08:55:02.427Z,3.90
2022-09-28T09:00:02.281Z,3.20
2022-09-28T09:05:02.228Z,2.65
2022-09-28T09:10:02.232Z,2.60
2022-09-28T09:15:02.060Z,2.35
2022-09-28T09:20:01.863Z,2.00
2022-09-28T09:25:02.821Z,2.00
2022-09-28T09:30:02.803Z,1.80
2022-09-28T09:35:02.665Z,1.60
2022-09-28T09:40:02.780Z,1.40
2022-09-28T09:45:12.636Z,0
2022-09-28T09:50:05.533Z,1.00
2022-09-28T09:55:01.781Z,1.40
2022-09-28T10:00:02.803Z,0.93
2022-09-28T10:05:02.655Z,1.10
2022-09-28T10:10:02.379Z,0.88
2022-09-28T10:15:02.170Z,1.10
2022-09-28T10:20:01.973Z,0.90
2022-09-28T10:25:01.806Z,0.85
2022-09-28T10:30:02.664Z,0.88
2022-09-28T10:35:02.511Z,0.82
2022-09-28T10:40:02.290Z,1.20
2022-09-28T10:45:02.006Z,0.90
2022-09-28T10:50:01.885Z,1.13
2022-09-28T10:55:02.797Z,1.10
2022-09-28T11:00:02.544Z,0.70
2022-09-28T11:05:02.363Z,0.80
2022-09-28T11:10:02.162Z,0.90
2022-09-28T11:15:02.016Z,0.70
2022-09-28T11:20:01.897Z,0.90
2022-09-28T11:25:02.695Z,0.90
2022-09-28T11:30:02.498Z,0.88
2022-09-28T11:35:02.274Z,0.80
2022-09-28T11:40:02.060Z,0.70
2022-09-28T11:45:01.887Z,0.73
2022-09-28T11:50:02.682Z,0.93
2022-09-28T11:55:02.471Z,0.80
2022-09-28T12:00:02.333Z,0.70
2022-09-28T12:05:02.355Z,0.70
2022-09-28T12:10:02.546Z,0.70
2022-09-28T12:15:10.578Z,0.80
2022-09-28T12:20:02.465Z,0.82
2022-09-28T12:25:02.391Z,0.90
2022-09-28T12:30:02.387Z,0.68
2022-09-28T12:35:02.341Z,0.70
2022-09-28T12:40:02.511Z,0.90
2022-09-28T12:45:02.428Z,0.73
2022-09-28T12:55:02.142Z,0.50
2022-09-28T13:00:12.136Z,0
2022-09-28T13:05:01.946Z,0.90
2022-09-28T13:10:01.795Z,0.77
2022-09-28T13:15:02.607Z,0.50
2022-09-28T13:20:02.527Z,0.55
2022-09-28T13:25:02.360Z,0.60
2022-09-28T13:30:02.357Z,0.77
2022-09-28T13:35:02.208Z,0.47
2022-09-28T13:40:02.278Z,0.50
2022-09-28T13:45:02.102Z,0.55
2022-09-28T13:50:01.933Z,0.57
2022-09-28T13:55:02.770Z,0.50
2022-09-28T14:00:02.618Z,0.40
2022-09-28T14:05:02.430Z,0.60
2022-09-28T14:10:02.367Z,0.60
2022-09-28T14:15:02.219Z,0.50
2022-09-28T14:20:02.000Z,0.88
2022-09-28T14:25:01.880Z,0.70
2022-09-28T14:30:02.706Z,0.55
2022-09-28T14:35:02.541Z,0.50
2022-09-28T14:40:02.362Z,0.60
2022-09-28T14:45:06.144Z,0.90
2022-09-28T14:50:02.193Z,0.65
2022-09-28T14:55:02.061Z,0.60
2022-09-28T15:00:01.988Z,0.70
2022-09-28T15:05:02.006Z,1.00
2022-09-28T15:10:01.944Z,0.85
2022-09-28T15:15:06.822Z,1.13
2022-09-28T15:20:02.763Z,1.35
2022-09-28T15:25:12.337Z,0.80
2022-09-28T15:30:02.113Z,0.77
2022-09-28T15:35:01.973Z,0.60
2022-09-28T15:40:01.789Z,0.43
2022-09-28T15:45:02.716Z,1.10
2022-09-28T15:50:02.521Z,0.45
2022-09-28T15:55:02.347Z,0.60
2022-09-28T16:00:02.189Z,0.30
2022-09-28T16:05:02.194Z,0.50
2022-09-28T16:10:02.209Z,0.50
2022-09-28T16:15:02.203Z,0.50
2022-09-28T16:20:02.053Z,0.43
2022-09-28T16:25:01.934Z,0.40
2022-09-28T16:30:02.718Z,0.60
2022-09-28T16:35:12.594Z,0
2022-09-28T16:40:02.470Z,0.50
2022-09-28T16:45:02.387Z,0.55
2022-09-28T16:50:02.201Z,0.55
2022-09-28T16:55:07.387Z,0.80
2022-09-28T17:00:02.592Z,1.25
2022-09-28T17:05:02.434Z,0.70
2022-09-28T17:10:02.339Z,0.60
2022-09-28T17:15:02.172Z,0.77
2022-09-28T17:20:02.328Z,0.80
2022-09-28T17:25:02.277Z,0.82
2022-09-28T17:30:02.194Z,0.98
2022-09-28T17:35:23.164Z,1.17
2022-09-28T17:40:02.359Z,2.20
2022-09-28T17:45:02.273Z,3.35
2022-09-28T17:50:02.308Z,2.42
2022-09-28T17:55:02.261Z,2.25
2022-09-28T18:00:02.158Z,2.40
2022-09-28T18:05:01.917Z,2.08
2022-09-28T18:10:01.716Z,1.42
2022-09-28T18:15:02.624Z,0.90
2022-09-28T18:20:02.522Z,1.40
2022-09-28T18:25:02.340Z,1.95
2022-09-28T18:30:02.221Z,1.67
2022-09-28T18:35:02.097Z,1.60
2022-09-28T18:40:01.996Z,1.50
2022-09-28T18:45:01.881Z,1.70
2022-09-28T18:50:02.706Z,1.50
2022-09-28T18:55:02.532Z,1.63
2022-09-28T19:00:02.336Z,1.60
2022-09-28T19:05:02.181Z,1.60
2022-09-28T19:10:02.030Z,1.30
2022-09-28T19:15:01.843Z,1.17
2022-09-28T19:20:02.597Z,1.33
2022-09-28T19:25:02.430Z,1.50
2022-09-28T19:30:02.259Z,1.33
2022-09-28T19:35:02.117Z,1.40
2022-09-28T19:40:01.884Z,1.60
2022-09-28T19:45:02.755Z,1.08
2022-09-28T19:50:02.604Z,1.20
2022-09-28T19:55:02.519Z,1.30
2022-09-28T20:00:03.534Z,1.15
2022-09-28T20:05:02.609Z,1.10
2022-09-28T20:10:02.527Z,1.27
2022-09-28T20:15:02.445Z,1.60
2022-09-28T20:20:02.425Z,1.90
2022-09-28T20:25:02.399Z,1.80
2022-09-28T20:30:02.249Z,1.60
2022-09-28T20:35:22.429Z,1.80
2022-09-28T20:40:08.218Z,1.60
2022-09-28T20:45:07.935Z,1.83
2022-09-28T20:50:08.617Z,1.50
2022-09-28T20:55:08.298Z,1.50
2022-09-28T21:00:07.953Z,1.80
2022-09-28T21:05:07.642Z,1.80
2022-09-28T21:10:08.352Z,1.50
2022-09-28T21:15:08.045Z,1.80
2022-09-28T21:20:07.749Z,1.95
2022-09-28T21:25:08.447Z,2.00
2022-09-28T21:30:08.165Z,2.13
2022-09-28T21:35:08.067Z,2.30
2022-09-28T21:40:07.788Z,2.15
2022-09-28T21:45:08.503Z,2.70
2022-09-28T21:50:08.217Z,2.88
2022-09-28T21:55:07.952Z,3.42
2022-09-28T22:00:07.703Z,3.83
2022-09-28T22:05:08.392Z,3.83
2022-09-28T22:10:08.305Z,3.58
2022-09-28T22:15:08.001Z,3.03
2022-09-28T22:20:07.699Z,2.72
2022-09-28T22:25:08.425Z,2.70
2022-09-28T22:30:08.114Z,2.63
2022-09-28T22:35:07.808Z,2.90
2022-09-28T22:40:10.750Z,2.67
2022-09-28T22:45:08.462Z,3.40
2022-09-28T22:50:08.163Z,2.60
2022-09-28T22:55:07.880Z,2.72
2022-09-28T23:01:01.928Z,2.90
2022-09-28T23:05:08.638Z,3.42
2022-09-28T23:10:08.364Z,2.97
2022-09-28T23:15:07.853Z,3.95
2022-09-28T23:20:08.542Z,3.10
2022-09-28T23:25:08.217Z,2.80
2022-09-28T23:30:07.933Z,2.92
2022-09-28T23:35:08.675Z,2.58
2022-09-28T23:40:08.365Z,2.83
2022-09-28T23:45:08.075Z,2.80
2022-09-28T23:50:07.772Z,3.00
2022-09-28T23:55:08.502Z,3.28
